sensor_id;sensor_type;location;lat;lon;timestamp;P1;durP1;ratioP1;P2;durP2;ratioP2
14900;SDS011;7542;49.078;9.194;2023-06-22T00:00:10;3.63;;;3.33;;
14900;SDS011;7542;49.078;9.194;2023-06-22T00:01:13;3.53;;;3.25;;
14900;SDS011;7542;49.078;9.194;2023-06-22T00:02:15;3.80;;;3.50;;
14900;SDS011;7542;49.078;9.194;2023-06-22T00:03:18;3.45;;;3.13;;
14900;SDS011;7542;49.078;9.194;2023-06-22T00:04:22;3.95;;;3.53;;
14900;SDS011;7542;49.078;9.194;2023-06-22T00:05:24;3.90;;;3.50;;
14900;SDS011;7542;49.078;9.194;2023-06-22T00:06:26;3.42;;;3.15;;
14900;SDS011;7542;49.078;9.194;2023-06-22T00:07:28;3.40;;;3.05;;
14900;SDS011;7542;49.078;9.194;2023-06-22T00:08:30;3.22;;;2.90;;
14900;SDS011;7542;49.078;9.194;2023-06-22T00:09:32;3.47;;;3.28;;
14900;SDS011;7542;49.078;9.194;2023-06-22T00:10:34;3.60;;;3.35;;
14900;SDS011;7542;49.078;9.194;2023-06-22T00:11:36;3.15;;;3.05;;
14900;SDS011;7542;49.078;9.194;2023-06-22T00:12:39;3.58;;;3.38;;
14900;SDS011;7542;49.078;9.194;2023-06-22T00:13:40;3.42;;;3.15;;
14900;SDS011;7542;49.078;9.194;2023-06-22T00:14:42;3.80;;;3.33;;
14900;SDS011;7542;49.078;9.194;2023-06-22T00:15:44;3.50;;;3.20;;
14900;SDS011;7542;49.078;9.194;2023-06-22T00:16:46;3.88;;;3.58;;
14900;SDS011;7542;49.078;9.194;2023-06-22T00:17:49;3.47;;;3.15;;
14900;SDS011;7542;49.078;9.194;2023-06-22T00:18:52;3.70;;;3.30;;
14900;SDS011;7542;49.078;9.194;2023-06-22T00:19:54;3.90;;;3.60;;
14900;SDS011;7542;49.078;9.194;2023-06-22T00:20:56;3.42;;;3.22;;
14900;SDS011;7542;49.078;9.194;2023-06-22T00:22:01;3.38;;;3.10;;
14900;SDS011;7542;49.078;9.194;2023-06-22T00:23:05;3.20;;;3.00;;
14900;SDS011;7542;49.078;9.194;2023-06-22T00:24:11;3.45;;;3.15;;
14900;SDS011;7542;49.078;9.194;2023-06-22T00:25:12;3.60;;;3.30;;
14900;SDS011;7542;49.078;9.194;2023-06-22T00:26:14;3.63;;;3.33;;
14900;SDS011;7542;49.078;9.194;2023-06-22T00:27:16;3.65;;;3.17;;
14900;SDS011;7542;49.078;9.194;2023-06-22T00:28:18;3.85;;;3.50;;
14900;SDS011;7542;49.078;9.194;2023-06-22T00:29:20;3.53;;;3.15;;
14900;SDS011;7542;49.078;9.194;2023-06-22T00:30:25;4.93;;;3.13;;
14900;SDS011;7542;49.078;9.194;2023-06-22T00:31:28;3.40;;;3.20;;
14900;SDS011;7542;49.078;9.194;2023-06-22T00:32:30;3.83;;;3.45;;
14900;SDS011;7542;49.078;9.194;2023-06-22T00:33:32;3.42;;;3.13;;
14900;SDS011;7542;49.078;9.194;2023-06-22T00:34:34;3.78;;;3.35;;
14900;SDS011;7542;49.078;9.194;2023-06-22T00:35:36;4.18;;;3.45;;
14900;SDS011;7542;49.078;9.194;2023-06-22T00:36:37;3.50;;;3.22;;
14900;SDS011;7542;49.078;9.194;2023-06-22T00:37:42;4.03;;;3.30;;
14900;SDS011;7542;49.078;9.194;2023-06-22T00:38:44;3.42;;;3.22;;
14900;SDS011;7542;49.078;9.194;2023-06-22T00:39:46;5.93;;;3.38;;
14900;SDS011;7542;49.078;9.194;2023-06-22T00:40:47;3.45;;;3.25;;
14900;SDS011;7542;49.078;9.194;2023-06-22T00:41:49;3.40;;;3.20;;
14900;SDS011;7542;49.078;9.194;2023-06-22T00:42:51;3.22;;;3.03;;
14900;SDS011;7542;49.078;9.194;2023-06-22T00:43:54;3.50;;;3.20;;
14900;SDS011;7542;49.078;9.194;2023-06-22T00:44:56;4.78;;;3.55;;
14900;SDS011;7542;49.078;9.194;2023-06-22T00:45:58;4.07;;;3.70;;
14900;SDS011;7542;49.078;9.194;2023-06-22T00:47:00;3.70;;;3.40;;
14900;SDS011;7542;49.078;9.194;2023-06-22T00:48:03;4.28;;;3.72;;
14900;SDS011;7542;49.078;9.194;2023-06-22T00:49:06;3.70;;;3.40;;
14900;SDS011;7542;49.078;9.194;2023-06-22T00:50:08;3.40;;;3.10;;
14900;SDS011;7542;49.078;9.194;2023-06-22T00:51:14;3.38;;;3.17;;
14900;SDS011;7542;49.078;9.194;2023-06-22T00:52:16;3.70;;;3.35;;
14900;SDS011;7542;49.078;9.194;2023-06-22T00:53:22;5.07;;;3.47;;
14900;SDS011;7542;49.078;9.194;2023-06-22T00:54:24;3.33;;;3.05;;
14900;SDS011;7542;49.078;9.194;2023-06-22T00:55:26;3.95;;;3.25;;
14900;SDS011;7542;49.078;9.194;2023-06-22T00:56:29;3.42;;;3.10;;
14900;SDS011;7542;49.078;9.194;2023-06-22T00:57:31;3.70;;;3.40;;
14900;SDS011;7542;49.078;9.194;2023-06-22T00:58:33;3.38;;;3.17;;
14900;SDS011;7542;49.078;9.194;2023-06-22T00:59:37;3.53;;;3.25;;
14900;SDS011;7542;49.078;9.194;2023-06-22T01:00:40;3.70;;;3.40;;
14900;SDS011;7542;49.078;9.194;2023-06-22T01:01:43;3.80;;;3.50;;
14900;SDS011;7542;49.078;9.194;2023-06-22T01:02:46;3.33;;;3.08;;
14900;SDS011;7542;49.078;9.194;2023-06-22T01:03:52;3.70;;;3.40;;
14900;SDS011;7542;49.078;9.194;2023-06-22T01:04:59;4.07;;;3.58;;
14900;SDS011;7542;49.078;9.194;2023-06-22T01:06:07;6.28;;;3.50;;
14900;SDS011;7542;49.078;9.194;2023-06-22T01:08:49;3.83;;;3.30;;
14900;SDS011;7542;49.078;9.194;2023-06-22T01:11:47;3.65;;;3.40;;
14900;SDS011;7542;49.078;9.194;2023-06-22T01:13:07;4.07;;;3.65;;
14900;SDS011;7542;49.078;9.194;2023-06-22T01:14:30;4.25;;;3.55;;
14900;SDS011;7542;49.078;9.194;2023-06-22T01:16:14;4.28;;;3.90;;
14900;SDS011;7542;49.078;9.194;2023-06-22T01:17:31;10.32;;;3.78;;
14900;SDS011;7542;49.078;9.194;2023-06-22T01:18:35;4.53;;;3.40;;
14900;SDS011;7542;49.078;9.194;2023-06-22T01:19:49;4.25;;;3.85;;
14900;SDS011;7542;49.078;9.194;2023-06-22T01:20:58;5.55;;;3.70;;
14900;SDS011;7542;49.078;9.194;2023-06-22T01:22:03;4.45;;;3.70;;
14900;SDS011;7542;49.078;9.194;2023-06-22T01:23:21;5.72;;;3.97;;
14900;SDS011;7542;49.078;9.194;2023-06-22T01:25:00;4.95;;;3.88;;
14900;SDS011;7542;49.078;9.194;2023-06-22T01:26:28;5.72;;;3.80;;
14900;SDS011;7542;49.078;9.194;2023-06-22T01:29:10;5.18;;;4.32;;
14900;SDS011;7542;49.078;9.194;2023-06-22T01:30:16;8.35;;;4.35;;
14900;SDS011;7542;49.078;9.194;2023-06-22T01:31:20;4.30;;;4.00;;
14900;SDS011;7542;49.078;9.194;2023-06-22T01:32:31;6.88;;;4.07;;
14900;SDS011;7542;49.078;9.194;2023-06-22T01:33:37;4.53;;;4.05;;
14900;SDS011;7542;49.078;9.194;2023-06-22T01:34:44;4.43;;;4.03;;
14900;SDS011;7542;49.078;9.194;2023-06-22T01:35:48;3.78;;;3.58;;
14900;SDS011;7542;49.078;9.194;2023-06-22T01:36:50;4.75;;;4.35;;
14900;SDS011;7542;49.078;9.194;2023-06-22T01:37:54;4.55;;;4.15;;
14900;SDS011;7542;49.078;9.194;2023-06-22T01:38:57;6.28;;;3.97;;
14900;SDS011;7542;49.078;9.194;2023-06-22T01:40:01;4.72;;;3.65;;
14900;SDS011;7542;49.078;9.194;2023-06-22T01:41:06;5.85;;;4.07;;
14900;SDS011;7542;49.078;9.194;2023-06-22T01:42:08;5.55;;;3.78;;
14900;SDS011;7542;49.078;9.194;2023-06-22T01:43:11;4.43;;;4.00;;
14900;SDS011;7542;49.078;9.194;2023-06-22T01:44:13;4.20;;;3.90;;
14900;SDS011;7542;49.078;9.194;2023-06-22T01:45:15;4.80;;;4.35;;
14900;SDS011;7542;49.078;9.194;2023-06-22T01:46:19;4.78;;;4.38;;
14900;SDS011;7542;49.078;9.194;2023-06-22T01:47:23;5.55;;;4.13;;
14900;SDS011;7542;49.078;9.194;2023-06-22T01:48:26;4.32;;;3.92;;
14900;SDS011;7542;49.078;9.194;2023-06-22T01:49:30;4.28;;;3.70;;
14900;SDS011;7542;49.078;9.194;2023-06-22T01:50:32;4.28;;;3.72;;
14900;SDS011;7542;49.078;9.194;2023-06-22T01:51:34;4.30;;;4.00;;
14900;SDS011;7542;49.078;9.194;2023-06-22T01:52:36;4.28;;;3.95;;
14900;SDS011;7542;49.078;9.194;2023-06-22T01:53:38;4.53;;;4.22;;
14900;SDS011;7542;49.078;9.194;2023-06-22T01:54:41;4.53;;;4.10;;
14900;SDS011;7542;49.078;9.194;2023-06-22T01:55:43;4.57;;;4.18;;
14900;SDS011;7542;49.078;9.194;2023-06-22T01:56:45;4.25;;;3.95;;
14900;SDS011;7542;49.078;9.194;2023-06-22T01:57:46;5.70;;;4.32;;
14900;SDS011;7542;49.078;9.194;2023-06-22T01:58:55;4.50;;;4.10;;
14900;SDS011;7542;49.078;9.194;2023-06-22T02:00:13;4.80;;;3.63;;
14900;SDS011;7542;49.078;9.194;2023-06-22T02:01:24;4.50;;;4.10;;
14900;SDS011;7542;49.078;9.194;2023-06-22T02:02:38;5.13;;;4.30;;
14900;SDS011;7542;49.078;9.194;2023-06-22T02:04:06;4.27;;;3.83;;
14900;SDS011;7542;49.078;9.194;2023-06-22T02:05:23;4.95;;;3.95;;
14900;SDS011;7542;49.078;9.194;2023-06-22T02:06:36;4.00;;;3.70;;
14900;SDS011;7542;49.078;9.194;2023-06-22T02:07:44;4.05;;;3.63;;
14900;SDS011;7542;49.078;9.194;2023-06-22T02:08:55;4.27;;;3.93;;
14900;SDS011;7542;49.078;9.194;2023-06-22T02:10:03;4.55;;;3.38;;
14900;SDS011;7542;49.078;9.194;2023-06-22T02:11:09;6.27;;;4.10;;
14900;SDS011;7542;49.078;9.194;2023-06-22T02:12:17;5.80;;;3.90;;
14900;SDS011;7542;49.078;9.194;2023-06-22T02:13:25;4.30;;;3.90;;
14900;SDS011;7542;49.078;9.194;2023-06-22T02:14:28;4.30;;;3.83;;
14900;SDS011;7542;49.078;9.194;2023-06-22T02:15:31;5.90;;;3.70;;
14900;SDS011;7542;49.078;9.194;2023-06-22T02:16:34;6.33;;;4.03;;
14900;SDS011;7542;49.078;9.194;2023-06-22T02:17:37;3.90;;;3.70;;
14900;SDS011;7542;49.078;9.194;2023-06-22T02:18:45;5.80;;;3.73;;
14900;SDS011;7542;49.078;9.194;2023-06-22T02:19:52;4.73;;;4.33;;
14900;SDS011;7542;49.078;9.194;2023-06-22T02:20:54;4.90;;;4.13;;
14900;SDS011;7542;49.078;9.194;2023-06-22T02:21:55;4.63;;;4.17;;
14900;SDS011;7542;49.078;9.194;2023-06-22T02:22:59;4.03;;;3.72;;
14900;SDS011;7542;49.078;9.194;2023-06-22T02:24:01;4.43;;;4.03;;
14900;SDS011;7542;49.078;9.194;2023-06-22T02:25:04;4.23;;;3.83;;
14900;SDS011;7542;49.078;9.194;2023-06-22T02:26:06;4.30;;;3.90;;
14900;SDS011;7542;49.078;9.194;2023-06-22T02:27:08;4.37;;;4.07;;
14900;SDS011;7542;49.078;9.194;2023-06-22T02:28:11;7.67;;;4.80;;
14900;SDS011;7542;49.078;9.194;2023-06-22T02:29:14;5.57;;;4.50;;
14900;SDS011;7542;49.078;9.194;2023-06-22T02:30:16;4.10;;;3.80;;
14900;SDS011;7542;49.078;9.194;2023-06-22T02:31:18;4.10;;;3.80;;
14900;SDS011;7542;49.078;9.194;2023-06-22T02:32:22;4.87;;;4.47;;
14900;SDS011;7542;49.078;9.194;2023-06-22T02:33:25;4.55;;;4.10;;
14900;SDS011;7542;49.078;9.194;2023-06-22T02:34:28;4.40;;;4.00;;
14900;SDS011;7542;49.078;9.194;2023-06-22T02:35:30;4.93;;;4.20;;
14900;SDS011;7542;49.078;9.194;2023-06-22T02:36:33;5.03;;;4.53;;
14900;SDS011;7542;49.078;9.194;2023-06-22T02:37:36;4.90;;;4.50;;
14900;SDS011;7542;49.078;9.194;2023-06-22T02:38:43;4.63;;;4.33;;
14900;SDS011;7542;49.078;9.194;2023-06-22T02:39:49;4.63;;;4.17;;
14900;SDS011;7542;49.078;9.194;2023-06-22T02:40:51;5.30;;;4.47;;
14900;SDS011;7542;49.078;9.194;2023-06-22T02:41:54;5.33;;;4.20;;
14900;SDS011;7542;49.078;9.194;2023-06-22T02:42:56;4.70;;;4.30;;
14900;SDS011;7542;49.078;9.194;2023-06-22T02:44:04;5.17;;;4.30;;
14900;SDS011;7542;49.078;9.194;2023-06-22T02:45:06;5.33;;;4.80;;
14900;SDS011;7542;49.078;9.194;2023-06-22T02:46:08;6.03;;;4.30;;
14900;SDS011;7542;49.078;9.194;2023-06-22T02:47:10;4.47;;;4.07;;
14900;SDS011;7542;49.078;9.194;2023-06-22T02:48:12;4.97;;;4.57;;
14900;SDS011;7542;49.078;9.194;2023-06-22T02:49:14;4.87;;;4.37;;
14900;SDS011;7542;49.078;9.194;2023-06-22T02:50:16;7.83;;;4.80;;
14900;SDS011;7542;49.078;9.194;2023-06-22T02:51:18;5.17;;;4.67;;
14900;SDS011;7542;49.078;9.194;2023-06-22T02:52:20;7.33;;;4.90;;
14900;SDS011;7542;49.078;9.194;2023-06-22T02:53:22;4.67;;;4.37;;
14900;SDS011;7542;49.078;9.194;2023-06-22T02:54:24;6.10;;;3.97;;
14900;SDS011;7542;49.078;9.194;2023-06-22T02:55:26;4.97;;;4.50;;
14900;SDS011;7542;49.078;9.194;2023-06-22T02:56:28;4.77;;;4.23;;
14900;SDS011;7542;49.078;9.194;2023-06-22T02:57:31;5.50;;;5.00;;
14900;SDS011;7542;49.078;9.194;2023-06-22T02:58:33;5.87;;;5.00;;
14900;SDS011;7542;49.078;9.194;2023-06-22T02:59:40;7.27;;;4.97;;
14900;SDS011;7542;49.078;9.194;2023-06-22T03:00:43;5.10;;;4.60;;
14900;SDS011;7542;49.078;9.194;2023-06-22T03:01:45;4.63;;;4.17;;
14900;SDS011;7542;49.078;9.194;2023-06-22T03:02:48;6.27;;;5.20;;
14900;SDS011;7542;49.078;9.194;2023-06-22T03:03:51;5.10;;;4.60;;
14900;SDS011;7542;49.078;9.194;2023-06-22T03:04:54;5.43;;;4.93;;
14900;SDS011;7542;49.078;9.194;2023-06-22T03:05:56;5.27;;;4.83;;
14900;SDS011;7542;49.078;9.194;2023-06-22T03:06:58;5.50;;;4.67;;
14900;SDS011;7542;49.078;9.194;2023-06-22T03:08:02;4.53;;;4.13;;
14900;SDS011;7542;49.078;9.194;2023-06-22T03:09:04;5.07;;;4.57;;
14900;SDS011;7542;49.078;9.194;2023-06-22T03:10:07;6.33;;;4.70;;
14900;SDS011;7542;49.078;9.194;2023-06-22T03:11:11;7.63;;;4.97;;
14900;SDS011;7542;49.078;9.194;2023-06-22T03:12:12;6.10;;;4.63;;
14900;SDS011;7542;49.078;9.194;2023-06-22T03:13:14;5.87;;;4.97;;
14900;SDS011;7542;49.078;9.194;2023-06-22T03:14:18;5.40;;;4.90;;
14900;SDS011;7542;49.078;9.194;2023-06-22T03:15:20;6.20;;;4.67;;
14900;SDS011;7542;49.078;9.194;2023-06-22T03:16:23;5.17;;;4.30;;
14900;SDS011;7542;49.078;9.194;2023-06-22T03:17:26;4.57;;;3.93;;
14900;SDS011;7542;49.078;9.194;2023-06-22T03:18:28;5.00;;;4.07;;
14900;SDS011;7542;49.078;9.194;2023-06-22T03:19:32;4.33;;;3.90;;
14900;SDS011;7542;49.078;9.194;2023-06-22T03:20:34;4.40;;;4.00;;
14900;SDS011;7542;49.078;9.194;2023-06-22T03:21:37;4.10;;;3.80;;
14900;SDS011;7542;49.078;9.194;2023-06-22T03:22:40;4.60;;;4.17;;
14900;SDS011;7542;49.078;9.194;2023-06-22T03:23:44;4.70;;;4.30;;
14900;SDS011;7542;49.078;9.194;2023-06-22T03:24:48;4.97;;;3.90;;
14900;SDS011;7542;49.078;9.194;2023-06-22T03:25:51;4.43;;;3.90;;
14900;SDS011;7542;49.078;9.194;2023-06-22T03:26:52;4.33;;;4.00;;
14900;SDS011;7542;49.078;9.194;2023-06-22T03:27:56;5.13;;;4.20;;
14900;SDS011;7542;49.078;9.194;2023-06-22T03:28:58;4.43;;;3.90;;
14900;SDS011;7542;49.078;9.194;2023-06-22T03:30:00;4.57;;;4.27;;
14900;SDS011;7542;49.078;9.194;2023-06-22T03:31:02;3.67;;;3.47;;
14900;SDS011;7542;49.078;9.194;2023-06-22T03:32:07;5.07;;;4.10;;
14900;SDS011;7542;49.078;9.194;2023-06-22T03:33:09;4.30;;;3.77;;
14900;SDS011;7542;49.078;9.194;2023-06-22T03:34:11;4.27;;;3.90;;
14900;SDS011;7542;49.078;9.194;2023-06-22T03:35:13;5.03;;;3.73;;
14900;SDS011;7542;49.078;9.194;2023-06-22T03:36:16;4.67;;;4.27;;
14900;SDS011;7542;49.078;9.194;2023-06-22T03:37:23;7.57;;;3.83;;
14900;SDS011;7542;49.078;9.194;2023-06-22T03:38:27;6.07;;;4.13;;
14900;SDS011;7542;49.078;9.194;2023-06-22T03:39:29;4.07;;;3.67;;
14900;SDS011;7542;49.078;9.194;2023-06-22T03:40:31;4.43;;;4.03;;
14900;SDS011;7542;49.078;9.194;2023-06-22T03:41:33;4.27;;;3.97;;
14900;SDS011;7542;49.078;9.194;2023-06-22T03:42:35;5.13;;;4.20;;
14900;SDS011;7542;49.078;9.194;2023-06-22T03:43:37;4.10;;;3.70;;
14900;SDS011;7542;49.078;9.194;2023-06-22T03:44:40;4.20;;;3.90;;
14900;SDS011;7542;49.078;9.194;2023-06-22T03:45:42;4.13;;;3.77;;
14900;SDS011;7542;49.078;9.194;2023-06-22T03:46:46;4.03;;;3.80;;
14900;SDS011;7542;49.078;9.194;2023-06-22T03:47:48;4.17;;;3.77;;
14900;SDS011;7542;49.078;9.194;2023-06-22T03:48:51;5.30;;;4.13;;
14900;SDS011;7542;49.078;9.194;2023-06-22T03:49:53;5.07;;;4.40;;
14900;SDS011;7542;49.078;9.194;2023-06-22T03:50:56;5.13;;;4.20;;
14900;SDS011;7542;49.078;9.194;2023-06-22T03:52:01;4.67;;;3.83;;
14900;SDS011;7542;49.078;9.194;2023-06-22T03:53:04;7.03;;;4.27;;
14900;SDS011;7542;49.078;9.194;2023-06-22T03:54:06;4.30;;;3.90;;
14900;SDS011;7542;49.078;9.194;2023-06-22T03:55:08;4.50;;;4.10;;
14900;SDS011;7542;49.078;9.194;2023-06-22T03:56:11;5.60;;;3.93;;
14900;SDS011;7542;49.078;9.194;2023-06-22T03:57:13;6.07;;;4.13;;
14900;SDS011;7542;49.078;9.194;2023-06-22T03:58:15;4.80;;;4.17;;
14900;SDS011;7542;49.078;9.194;2023-06-22T03:59:20;4.83;;;4.40;;
14900;SDS011;7542;49.078;9.194;2023-06-22T04:00:23;4.30;;;4.00;;
14900;SDS011;7542;49.078;9.194;2023-06-22T04:01:25;4.43;;;4.13;;
14900;SDS011;7542;49.078;9.194;2023-06-22T04:02:27;5.10;;;3.93;;
14900;SDS011;7542;49.078;9.194;2023-06-22T04:03:29;4.60;;;4.17;;
14900;SDS011;7542;49.078;9.194;2023-06-22T04:04:32;5.90;;;4.37;;
14900;SDS011;7542;49.078;9.194;2023-06-22T04:05:38;4.47;;;4.10;;
14900;SDS011;7542;49.078;9.194;2023-06-22T04:06:41;4.45;;;4.03;;
14900;SDS011;7542;49.078;9.194;2023-06-22T04:07:43;4.10;;;3.80;;
14900;SDS011;7542;49.078;9.194;2023-06-22T04:08:45;5.87;;;3.93;;
14900;SDS011;7542;49.078;9.194;2023-06-22T04:09:52;4.70;;;4.17;;
14900;SDS011;7542;49.078;9.194;2023-06-22T04:10:55;5.17;;;4.30;;
14900;SDS011;7542;49.078;9.194;2023-06-22T04:11:57;4.67;;;3.80;;
14900;SDS011;7542;49.078;9.194;2023-06-22T04:12:59;4.13;;;3.75;;
14900;SDS011;7542;49.078;9.194;2023-06-22T04:14:02;4.43;;;4.03;;
14900;SDS011;7542;49.078;9.194;2023-06-22T04:15:04;4.30;;;4.00;;
14900;SDS011;7542;49.078;9.194;2023-06-22T04:16:07;4.43;;;4.07;;
14900;SDS011;7542;49.078;9.194;2023-06-22T04:17:09;4.57;;;4.17;;
14900;SDS011;7542;49.078;9.194;2023-06-22T04:18:11;4.50;;;4.13;;
14900;SDS011;7542;49.078;9.194;2023-06-22T04:19:14;6.67;;;3.83;;
14900;SDS011;7542;49.078;9.194;2023-06-22T04:20:19;5.13;;;3.77;;
14900;SDS011;7542;49.078;9.194;2023-06-22T04:21:21;4.40;;;4.03;;
14900;SDS011;7542;49.078;9.194;2023-06-22T04:22:24;6.57;;;3.73;;
14900;SDS011;7542;49.078;9.194;2023-06-22T04:23:27;4.10;;;3.80;;
14900;SDS011;7542;49.078;9.194;2023-06-22T04:24:29;4.57;;;4.15;;
14900;SDS011;7542;49.078;9.194;2023-06-22T04:25:31;3.97;;;3.57;;
14900;SDS011;7542;49.078;9.194;2023-06-22T04:26:33;4.47;;;3.77;;
14900;SDS011;7542;49.078;9.194;2023-06-22T04:27:38;4.88;;;3.95;;
14900;SDS011;7542;49.078;9.194;2023-06-22T04:28:41;4.83;;;4.37;;
14900;SDS011;7542;49.078;9.194;2023-06-22T04:29:44;5.27;;;4.40;;
14900;SDS011;7542;49.078;9.194;2023-06-22T04:30:49;4.72;;;4.32;;
14900;SDS011;7542;49.078;9.194;2023-06-22T04:31:52;4.38;;;4.07;;
14900;SDS011;7542;49.078;9.194;2023-06-22T04:32:54;3.97;;;3.67;;
14900;SDS011;7542;49.078;9.194;2023-06-22T04:33:59;4.30;;;3.60;;
14900;SDS011;7542;49.078;9.194;2023-06-22T04:35:07;5.43;;;4.40;;
14900;SDS011;7542;49.078;9.194;2023-06-22T04:36:10;6.53;;;4.13;;
14900;SDS011;7542;49.078;9.194;2023-06-22T04:37:14;6.10;;;4.03;;
14900;SDS011;7542;49.078;9.194;2023-06-22T04:38:17;4.60;;;4.20;;
14900;SDS011;7542;49.078;9.194;2023-06-22T04:39:19;4.90;;;4.03;;
14900;SDS011;7542;49.078;9.194;2023-06-22T04:40:24;6.93;;;4.20;;
14900;SDS011;7542;49.078;9.194;2023-06-22T04:41:27;4.60;;;4.20;;
14900;SDS011;7542;49.078;9.194;2023-06-22T04:42:29;7.07;;;4.43;;
14900;SDS011;7542;49.078;9.194;2023-06-22T04:43:33;5.37;;;4.23;;
14900;SDS011;7542;49.078;9.194;2023-06-22T04:44:35;5.37;;;4.03;;
14900;SDS011;7542;49.078;9.194;2023-06-22T04:45:37;4.72;;;4.32;;
14900;SDS011;7542;49.078;9.194;2023-06-22T04:46:39;6.37;;;4.23;;
14900;SDS011;7542;49.078;9.194;2023-06-22T04:47:42;5.43;;;4.27;;
14900;SDS011;7542;49.078;9.194;2023-06-22T04:48:43;4.68;;;4.07;;
14900;SDS011;7542;49.078;9.194;2023-06-22T04:49:45;7.18;;;4.25;;
14900;SDS011;7542;49.078;9.194;2023-06-22T04:50:48;5.10;;;4.60;;
14900;SDS011;7542;49.078;9.194;2023-06-22T04:51:50;4.47;;;4.07;;
14900;SDS011;7542;49.078;9.194;2023-06-22T04:52:53;4.73;;;4.20;;
14900;SDS011;7542;49.078;9.194;2023-06-22T04:53:55;4.40;;;4.10;;
14900;SDS011;7542;49.078;9.194;2023-06-22T04:55:01;5.00;;;4.30;;
14900;SDS011;7542;49.078;9.194;2023-06-22T04:56:05;6.27;;;4.50;;
14900;SDS011;7542;49.078;9.194;2023-06-22T04:57:07;4.35;;;4.03;;
14900;SDS011;7542;49.078;9.194;2023-06-22T04:58:12;6.50;;;4.20;;
14900;SDS011;7542;49.078;9.194;2023-06-22T04:59:14;4.30;;;3.93;;
14900;SDS011;7542;49.078;9.194;2023-06-22T05:01:23;4.10;;;3.83;;
14900;SDS011;7542;49.078;9.194;2023-06-22T05:02:26;4.57;;;3.97;;
14900;SDS011;7542;49.078;9.194;2023-06-22T05:03:34;4.00;;;3.77;;
14900;SDS011;7542;49.078;9.194;2023-06-22T05:04:38;4.47;;;4.10;;
14900;SDS011;7542;49.078;9.194;2023-06-22T05:05:41;4.23;;;3.90;;
14900;SDS011;7542;49.078;9.194;2023-06-22T05:06:43;4.23;;;3.83;;
14900;SDS011;7542;49.078;9.194;2023-06-22T05:07:46;5.17;;;4.03;;
14900;SDS011;7542;49.078;9.194;2023-06-22T05:08:53;5.47;;;3.83;;
14900;SDS011;7542;49.078;9.194;2023-06-22T05:09:59;4.33;;;4.03;;
14900;SDS011;7542;49.078;9.194;2023-06-22T05:11:05;5.57;;;4.07;;
14900;SDS011;7542;49.078;9.194;2023-06-22T05:12:07;4.50;;;4.20;;
14900;SDS011;7542;49.078;9.194;2023-06-22T05:13:11;7.57;;;4.60;;
14900;SDS011;7542;49.078;9.194;2023-06-22T05:14:13;4.63;;;3.90;;
14900;SDS011;7542;49.078;9.194;2023-06-22T05:15:16;4.33;;;4.10;;
14900;SDS011;7542;49.078;9.194;2023-06-22T05:16:21;4.95;;;4.00;;
14900;SDS011;7542;49.078;9.194;2023-06-22T05:17:26;4.07;;;3.80;;
14900;SDS011;7542;49.078;9.194;2023-06-22T05:18:30;5.30;;;4.03;;
14900;SDS011;7542;49.078;9.194;2023-06-22T05:19:33;4.82;;;4.53;;
14900;SDS011;7542;49.078;9.194;2023-06-22T05:20:35;5.47;;;4.70;;
14900;SDS011;7542;49.078;9.194;2023-06-22T05:21:38;5.80;;;4.57;;
14900;SDS011;7542;49.078;9.194;2023-06-22T05:22:40;5.32;;;4.65;;
14900;SDS011;7542;49.078;9.194;2023-06-22T05:23:42;4.82;;;4.32;;
14900;SDS011;7542;49.078;9.194;2023-06-22T05:24:44;4.23;;;3.83;;
14900;SDS011;7542;49.078;9.194;2023-06-22T05:25:47;5.72;;;3.92;;
14900;SDS011;7542;49.078;9.194;2023-06-22T05:26:49;4.43;;;3.72;;
14900;SDS011;7542;49.078;9.194;2023-06-22T05:27:52;4.80;;;4.35;;
14900;SDS011;7542;49.078;9.194;2023-06-22T05:28:54;4.33;;;3.83;;
14900;SDS011;7542;49.078;9.194;2023-06-22T05:29:57;4.30;;;3.67;;
14900;SDS011;7542;49.078;9.194;2023-06-22T05:30:59;3.92;;;3.63;;
14900;SDS011;7542;49.078;9.194;2023-06-22T05:32:02;4.10;;;3.60;;
14900;SDS011;7542;49.078;9.194;2023-06-22T05:33:05;4.43;;;4.03;;
14900;SDS011;7542;49.078;9.194;2023-06-22T05:34:08;4.40;;;4.00;;
14900;SDS011;7542;49.078;9.194;2023-06-22T05:35:10;5.65;;;4.20;;
14900;SDS011;7542;49.078;9.194;2023-06-22T05:36:12;4.07;;;3.80;;
14900;SDS011;7542;49.078;9.194;2023-06-22T05:37:15;4.72;;;4.00;;
14900;SDS011;7542;49.078;9.194;2023-06-22T05:38:17;4.50;;;4.13;;
14900;SDS011;7542;49.078;9.194;2023-06-22T05:39:19;4.30;;;3.95;;
14900;SDS011;7542;49.078;9.194;2023-06-22T05:40:21;6.43;;;4.00;;
14900;SDS011;7542;49.078;9.194;2023-06-22T05:41:23;4.00;;;3.70;;
14900;SDS011;7542;49.078;9.194;2023-06-22T05:42:26;4.07;;;3.80;;
14900;SDS011;7542;49.078;9.194;2023-06-22T05:43:28;4.18;;;3.53;;
14900;SDS011;7542;49.078;9.194;2023-06-22T05:44:30;5.55;;;3.90;;
14900;SDS011;7542;49.078;9.194;2023-06-22T05:45:32;4.03;;;3.65;;
14900;SDS011;7542;49.078;9.194;2023-06-22T05:46:34;4.40;;;4.00;;
14900;SDS011;7542;49.078;9.194;2023-06-22T05:47:36;4.32;;;4.03;;
14900;SDS011;7542;49.078;9.194;2023-06-22T05:48:38;6.78;;;4.03;;
14900;SDS011;7542;49.078;9.194;2023-06-22T05:49:40;4.65;;;4.25;;
14900;SDS011;7542;49.078;9.194;2023-06-22T05:50:42;9.20;;;4.27;;
14900;SDS011;7542;49.078;9.194;2023-06-22T05:51:44;4.40;;;4.10;;
14900;SDS011;7542;49.078;9.194;2023-06-22T05:52:47;5.80;;;4.40;;
14900;SDS011;7542;49.078;9.194;2023-06-22T05:53:49;4.88;;;4.40;;
14900;SDS011;7542;49.078;9.194;2023-06-22T05:54:51;4.72;;;4.32;;
14900;SDS011;7542;49.078;9.194;2023-06-22T05:55:53;4.50;;;4.20;;
14900;SDS011;7542;49.078;9.194;2023-06-22T05:56:55;8.07;;;4.40;;
14900;SDS011;7542;49.078;9.194;2023-06-22T05:57:57;5.20;;;4.68;;
14900;SDS011;7542;49.078;9.194;2023-06-22T05:58:59;4.47;;;4.15;;
14900;SDS011;7542;49.078;9.194;2023-06-22T06:00:02;5.00;;;4.00;;
14900;SDS011;7542;49.078;9.194;2023-06-22T06:01:08;4.43;;;4.03;;
14900;SDS011;7542;49.078;9.194;2023-06-22T06:02:10;5.15;;;4.20;;
14900;SDS011;7542;49.078;9.194;2023-06-22T06:03:13;4.45;;;4.03;;
14900;SDS011;7542;49.078;9.194;2023-06-22T06:04:18;6.68;;;4.78;;
14900;SDS011;7542;49.078;9.194;2023-06-22T06:05:21;4.65;;;4.10;;
14900;SDS011;7542;49.078;9.194;2023-06-22T06:06:24;8.68;;;4.22;;
14900;SDS011;7542;49.078;9.194;2023-06-22T06:07:29;4.40;;;4.00;;
14900;SDS011;7542;49.078;9.194;2023-06-22T06:08:31;6.80;;;4.65;;
14900;SDS011;7542;49.078;9.194;2023-06-22T06:09:33;6.80;;;4.25;;
14900;SDS011;7542;49.078;9.194;2023-06-22T06:10:35;5.38;;;4.47;;
14900;SDS011;7542;49.078;9.194;2023-06-22T06:11:38;4.38;;;4.07;;
14900;SDS011;7542;49.078;9.194;2023-06-22T06:12:41;7.70;;;4.57;;
14900;SDS011;7542;49.078;9.194;2023-06-22T06:13:43;5.10;;;4.38;;
14900;SDS011;7542;49.078;9.194;2023-06-22T06:14:45;7.53;;;4.68;;
14900;SDS011;7542;49.078;9.194;2023-06-22T06:15:48;5.47;;;4.57;;
14900;SDS011;7542;49.078;9.194;2023-06-22T06:16:52;4.97;;;4.32;;
14900;SDS011;7542;49.078;9.194;2023-06-22T06:17:54;6.95;;;4.97;;
14900;SDS011;7542;49.078;9.194;2023-06-22T06:18:56;5.13;;;4.63;;
14900;SDS011;7542;49.078;9.194;2023-06-22T06:20:01;6.22;;;4.15;;
14900;SDS011;7542;49.078;9.194;2023-06-22T06:21:05;4.30;;;3.95;;
14900;SDS011;7542;49.078;9.194;2023-06-22T06:22:07;5.28;;;4.35;;
14900;SDS011;7542;49.078;9.194;2023-06-22T06:23:09;4.95;;;4.47;;
14900;SDS011;7542;49.078;9.194;2023-06-22T06:24:12;5.53;;;4.80;;
14900;SDS011;7542;49.078;9.194;2023-06-22T06:25:14;6.38;;;4.45;;
14900;SDS011;7542;49.078;9.194;2023-06-22T06:26:17;7.40;;;4.10;;
14900;SDS011;7542;49.078;9.194;2023-06-22T06:27:24;8.48;;;4.45;;
14900;SDS011;7542;49.078;9.194;2023-06-22T06:28:30;6.82;;;4.43;;
14900;SDS011;7542;49.078;9.194;2023-06-22T06:29:32;4.40;;;4.10;;
14900;SDS011;7542;49.078;9.194;2023-06-22T06:30:34;4.32;;;3.92;;
14900;SDS011;7542;49.078;9.194;2023-06-22T06:31:38;5.55;;;4.35;;
14900;SDS011;7542;49.078;9.194;2023-06-22T06:32:40;7.20;;;4.00;;
14900;SDS011;7542;49.078;9.194;2023-06-22T06:33:44;4.47;;;4.07;;
14900;SDS011;7542;49.078;9.194;2023-06-22T06:34:46;6.82;;;3.97;;
14900;SDS011;7542;49.078;9.194;2023-06-22T06:35:48;4.55;;;4.15;;